Time;durP1;ratioP1;P1;durP2;ratioP2;P2;SDS_P1;SDS_P2;PMS_P1;PMS_P2;Temp;Humidity;BMP_temperature;BMP_pressure;BME280_temperature;BME280_humidity;BME280_pressure;Samples;Min_cycle;Max_cycle;Signal;HPM_P1;HPM_P2
2022/01/30 00:00:28;;;;;;;;;;;6.80;99.90;;;;;;4963838;28;20122;-74
2022/01/30 00:02:54;;;;;;;;;;;6.90;99.90;;;;;;4950984;28;19937;-74
2022/01/30 00:05:22;;;;;;;;;;;6.90;99.90;;;;;;4963563;28;19926;-74
2022/01/30 00:07:49;;;;;;;;;;;6.90;99.90;;;;;;4950812;28;19927;-74
2022/01/30 00:10:16;;;;;;;;;;;7.10;99.90;;;;;;4958625;28;20033;-74
2022/01/30 00:12:51;;;;;;;;;;;7.20;99.90;;;;;;4958527;28;19934;-75
2022/01/30 00:15:35;;;;;;;;;;;7.30;99.90;;;;;;4955953;28;19926;-74
2022/01/30 00:18:18;;;;;;;;;;;7.40;99.90;;;;;;4966272;28;19927;-74
2022/01/30 00:20:58;;;;;;;;;;;7.50;99.90;;;;;;4963845;28;20294;-74
2022/01/30 00:23:26;;;;;;;;;;;7.60;99.90;;;;;;4961128;28;19937;-74
2022/01/30 00:25:56;;;;;;;;;;;7.70;99.90;;;;;;4955280;28;20349;-74
2022/01/30 00:28:25;;;;;;;;;;;7.80;99.90;;;;;;4955864;28;20013;-76
2022/01/30 00:30:52;;;;;;;;;;;7.80;99.90;;;;;;4969824;28;20403;-76
2022/01/30 00:33:19;;;;;;;;;;;7.90;99.90;;;;;;4968465;28;19930;-76
2022/01/30 00:35:46;;;;;;;;;;;7.90;99.90;;;;;;4971357;28;19924;-74
2022/01/30 00:38:19;;;;;;;;;;;7.90;99.90;;;;;;4988808;28;20217;-74
2022/01/30 00:40:46;;;;;;;;;;;7.90;99.90;;;;;;4964660;28;20021;-74
2022/01/30 00:43:16;;;;;;;;;;;7.70;99.90;;;;;;4962398;28;19954;-73
2022/01/30 00:45:43;;;;;;;;;;;7.60;99.90;;;;;;4965664;28;20421;-74
2022/01/30 00:48:10;;;;;;;;;;;7.50;99.90;;;;;;4960669;28;20266;-74
2022/01/30 00:50:39;;;;;;;;;;;7.50;99.90;;;;;;4966375;28;20343;-73
2022/01/30 00:53:07;;;;;;;;;;;7.60;99.90;;;;;;4950622;28;20403;-74
2022/01/30 00:55:34;;;;;;;;;;;7.60;99.90;;;;;;4965616;28;19933;-74
2022/01/30 00:58:02;;;;;;;;;;;7.70;99.90;;;;;;4951451;28;19933;-74
2022/01/30 01:00:29;;;;;;;;;;;7.70;99.90;;;;;;4966317;28;19927;-74
2022/01/30 01:02:56;;;;;;;;;;;7.80;99.90;;;;;;4976218;28;19948;-74
2022/01/30 01:05:23;;;;;;;;;;;7.70;99.90;;;;;;4961149;28;19940;-74
2022/01/30 01:07:55;;;;;;;;;;;7.70;99.90;;;;;;4968060;28;19930;-74
2022/01/30 01:10:40;;;;;;;;;;;7.60;99.90;;;;;;4964617;28;19930;-74
2022/01/30 01:24:03;;;;;;;;;;;7.50;99.90;;;;;;4953919;28;19946;-74
2022/01/30 01:26:30;;;;;;;;;;;7.50;99.90;;;;;;4980376;28;19972;-75
2022/01/30 01:28:57;;;;;;;;;;;7.40;99.90;;;;;;4967265;28;20282;-74
2022/01/30 01:31:24;;;;;;;;;;;7.40;99.90;;;;;;4963746;28;20253;-74
2022/01/30 01:36:26;;;;;;;;;;;7.30;99.90;;;;;;4954591;28;20150;-74
2022/01/30 01:38:53;;;;;;;;;;;7.10;99.90;;;;;;4958625;28;19926;-74
2022/01/30 01:41:21;;;;;;;;;;;7.10;99.90;;;;;;4961588;28;19965;-74
2022/01/30 01:43:51;;;;;;;;;;;7.00;99.90;;;;;;4959944;28;19927;-75
2022/01/30 01:46:23;;;;;;;;;;;7.00;99.90;;;;;;4965569;28;19984;-74
2022/01/30 01:48:52;;;;;;;;;;;6.90;99.90;;;;;;4959622;28;19936;-74
2022/01/30 01:51:46;;;;;;;;;;;6.90;99.90;;;;;;4958497;28;20385;-74
2022/01/30 01:54:13;;;;;;;;;;;6.90;99.90;;;;;;4960046;28;20385;-74
2022/01/30 01:56:40;;;;;;;;;;;6.80;99.90;;;;;;4962278;28;19992;-74
2022/01/30 01:59:06;;;;;;;;;;;6.90;99.90;;;;;;4961490;28;19941;-75
2022/01/30 02:01:33;;;;;;;;;;;6.90;99.90;;;;;;4961754;28;19941;-74
2022/01/30 02:04:00;;;;;;;;;;;6.90;99.90;;;;;;4979670;28;19997;-74
2022/01/30 02:06:28;;;;;;;;;;;6.90;99.90;;;;;;4957673;28;19927;-74
2022/01/30 02:08:59;;;;;;;;;;;6.90;99.90;;;;;;4973157;28;19930;-74
2022/01/30 02:11:42;;;;;;;;;;;7.00;99.90;;;;;;4968423;28;20397;-74
2022/01/30 02:25:17;;;;;;;;;;;6.90;99.90;;;;;;4955014;28;19926;-77
2022/01/30 02:27:44;;;;;;;;;;;7.10;99.90;;;;;;4965975;28;19929;-74
2022/01/30 02:30:14;;;;;;;;;;;7.20;99.90;;;;;;4966102;28;19926;-74
2022/01/30 02:32:41;;;;;;;;;;;7.10;99.90;;;;;;4951004;28;19930;-74
2022/01/30 02:35:08;;;;;;;;;;;7.10;99.90;;;;;;4960558;28;19936;-76
2022/01/30 02:37:35;;;;;;;;;;;7.20;99.90;;;;;;4959391;28;19926;-74
2022/01/30 02:40:06;;;;;;;;;;;7.10;99.90;;;;;;4948491;28;19934;-76
2022/01/30 02:42:35;;;;;;;;;;;7.10;99.90;;;;;;4960752;28;20271;-77
2022/01/30 02:45:06;;;;;;;;;;;7.10;99.90;;;;;;4949420;28;19927;-76
2022/01/30 02:50:20;;;;;;;;;;;7.00;99.90;;;;;;4960535;28;19926;-77
2022/01/30 02:52:56;;;;;;;;;;;7.00;99.90;;;;;;4955019;28;20377;-74
2022/01/30 02:55:23;;;;;;;;;;;7.00;99.90;;;;;;4954290;28;19933;-74
2022/01/30 02:57:50;;;;;;;;;;;7.00;99.90;;;;;;4964882;28;20332;-75
2022/01/30 03:00:16;;;;;;;;;;;7.00;99.90;;;;;;4965054;28;19937;-75
2022/01/30 03:02:43;;;;;;;;;;;7.00;99.90;;;;;;4966966;28;19926;-76
2022/01/30 03:05:10;;;;;;;;;;;7.00;99.90;;;;;;4970224;28;19930;-76
2022/01/30 03:07:36;;;;;;;;;;;7.00;99.90;;;;;;4964784;28;19932;-75
2022/01/30 03:10:03;;;;;;;;;;;6.90;99.90;;;;;;4958174;28;19938;-76
2022/01/30 03:12:30;;;;;;;;;;;6.80;99.90;;;;;;4969073;28;19930;-76
2022/01/30 03:14:57;;;;;;;;;;;6.80;99.90;;;;;;4965273;28;19926;-76
2022/01/30 03:17:31;;;;;;;;;;;6.90;99.90;;;;;;4954201;28;19937;-76
2022/01/30 03:19:57;;;;;;;;;;;6.90;99.90;;;;;;4973434;28;19949;-76
2022/01/30 03:22:25;;;;;;;;;;;7.00;99.90;;;;;;4961265;28;19926;-76
2022/01/30 03:24:52;;;;;;;;;;;7.00;99.90;;;;;;4951066;28;19953;-76
2022/01/30 03:27:19;;;;;;;;;;;7.00;99.90;;;;;;4970863;28;19958;-76
2022/01/30 03:30:03;;;;;;;;;;;7.00;99.90;;;;;;4974263;28;19932;-76
2022/01/30 03:32:30;;;;;;;;;;;6.90;99.90;;;;;;4967817;28;19936;-76
2022/01/30 03:34:57;;;;;;;;;;;6.80;99.90;;;;;;4962905;28;19936;-76
2022/01/30 03:37:23;;;;;;;;;;;6.70;99.90;;;;;;4961344;28;20381;-76
2022/01/30 03:39:50;;;;;;;;;;;6.60;99.90;;;;;;4950521;28;19930;-76
2022/01/30 03:42:17;;;;;;;;;;;6.50;99.90;;;;;;4964156;28;20025;-76
2022/01/30 03:44:43;;;;;;;;;;;6.40;99.90;;;;;;4966497;28;19926;-76
2022/01/30 03:47:10;;;;;;;;;;;6.30;99.90;;;;;;4967002;28;19925;-76
2022/01/30 03:49:37;;;;;;;;;;;6.20;99.90;;;;;;4961037;28;20327;-76
2022/01/30 03:52:03;;;;;;;;;;;6.20;99.90;;;;;;5005091;28;19945;-76
2022/01/30 03:54:32;;;;;;;;;;;6.20;99.90;;;;;;4974466;28;20324;-76
2022/01/30 03:56:59;;;;;;;;;;;6.20;99.90;;;;;;4953819;28;19948;-76
2022/01/30 03:59:25;;;;;;;;;;;6.10;99.90;;;;;;4952876;28;19922;-76
2022/01/30 04:01:52;;;;;;;;;;;6.00;99.90;;;;;;4958607;28;20179;-75
2022/01/30 04:04:19;;;;;;;;;;;6.00;99.90;;;;;;4967468;28;19921;-76
2022/01/30 04:06:46;;;;;;;;;;;5.90;99.90;;;;;;4983179;28;20144;-76
2022/01/30 04:09:12;;;;;;;;;;;6.00;99.90;;;;;;4972708;28;19929;-75
2022/01/30 04:11:39;;;;;;;;;;;5.90;99.90;;;;;;4955125;28;19923;-76
2022/01/30 04:14:07;;;;;;;;;;;5.90;99.90;;;;;;4949841;28;19926;-76
2022/01/30 04:16:33;;;;;;;;;;;5.90;99.90;;;;;;4958396;28;19977;-75
2022/01/30 04:19:00;;;;;;;;;;;5.90;99.90;;;;;;4962896;28;19926;-76
2022/01/30 04:21:27;;;;;;;;;;;5.90;99.90;;;;;;4964063;28;20017;-76
2022/01/30 04:23:54;;;;;;;;;;;5.90;99.90;;;;;;4965724;28;19992;-76
2022/01/30 04:26:20;;;;;;;;;;;5.90;99.90;;;;;;4964574;28;19933;-75
2022/01/30 04:28:47;;;;;;;;;;;5.80;99.90;;;;;;4978866;28;20016;-76
2022/01/30 04:31:14;;;;;;;;;;;5.80;99.90;;;;;;4962590;28;19928;-76
2022/01/30 04:33:41;;;;;;;;;;;5.80;99.90;;;;;;4964547;28;19925;-76
2022/01/30 04:36:12;;;;;;;;;;;5.90;99.90;;;;;;4971458;28;19922;-76
2022/01/30 04:39:06;;;;;;;;;;;6.00;99.90;;;;;;4962556;28;19930;-75
2022/01/30 04:53:10;;;;;;;;;;;6.00;99.90;;;;;;4964152;28;19931;-76
2022/01/30 04:55:47;;;;;;;;;;;5.90;99.90;;;;;;4956539;28;20564;-76
2022/01/30 04:58:03;;;;;;;;;;;5.90;99.90;;;;;;4961223;28;19922;-76
2022/01/30 05:03:41;;;;;;;;;;;5.90;99.90;;;;;;4964627;28;19922;-76
2022/01/30 05:06:12;;;;;;;;;;;5.90;99.90;;;;;;4961163;28;20300;-75
2022/01/30 05:08:39;;;;;;;;;;;5.80;99.90;;;;;;4972119;28;19921;-76
2022/01/30 05:11:07;;;;;;;;;;;5.80;99.90;;;;;;4953991;28;20049;-76
2022/01/30 05:13:38;;;;;;;;;;;5.80;99.90;;;;;;4970232;28;19933;-76
2022/01/30 05:16:06;;;;;;;;;;;5.70;99.90;;;;;;4962337;28;19922;-76
2022/01/30 05:18:32;;;;;;;;;;;5.60;99.90;;;;;;4955349;28;20575;-76
2022/01/30 05:20:59;;;;;;;;;;;5.60;99.90;;;;;;4955163;28;19922;-76
2022/01/30 05:23:26;;;;;;;;;;;5.70;99.90;;;;;;4961026;28;20372;-76
2022/01/30 05:25:53;;;;;;;;;;;5.70;99.90;;;;;;4956283;28;19944;-75
2022/01/30 05:28:22;;;;;;;;;;;5.60;99.90;;;;;;4976179;28;25066;-76
2022/01/30 05:30:49;;;;;;;;;;;5.60;99.90;;;;;;4964459;28;19933;-75
2022/01/30 05:33:16;;;;;;;;;;;5.60;99.90;;;;;;4960899;28;19926;-76
2022/01/30 05:35:45;;;;;;;;;;;5.60;99.90;;;;;;4952737;28;19988;-75
2022/01/30 05:38:13;;;;;;;;;;;5.50;99.90;;;;;;4960479;28;20404;-75
2022/01/30 05:40:39;;;;;;;;;;;5.60;99.90;;;;;;4948382;28;19926;-76
2022/01/30 05:43:06;;;;;;;;;;;5.60;99.90;;;;;;4951251;28;19933;-76
2022/01/30 05:45:43;;;;;;;;;;;5.60;99.90;;;;;;4958150;28;19926;-75
2022/01/30 05:48:15;;;;;;;;;;;5.60;99.90;;;;;;4951798;28;19926;-76
2022/01/30 05:50:45;;;;;;;;;;;5.60;99.90;;;;;;4964625;28;20009;-76
2022/01/30 05:53:13;;;;;;;;;;;5.50;99.90;;;;;;4954905;28;19933;-76
2022/01/30 05:55:40;;;;;;;;;;;5.50;99.90;;;;;;4953929;28;19927;-75
2022/01/30 05:58:10;;;;;;;;;;;5.40;99.90;;;;;;4964008;28;19922;-75
2022/01/30 06:00:42;;;;;;;;;;;5.40;99.90;;;;;;4975249;28;19923;-76
2022/01/30 06:03:09;;;;;;;;;;;5.40;99.90;;;;;;4965134;28;20335;-76
2022/01/30 06:05:36;;;;;;;;;;;5.50;99.90;;;;;;4967646;28;19922;-76
2022/01/30 06:08:12;;;;;;;;;;;5.40;99.90;;;;;;4974047;28;19921;-76
2022/01/30 06:10:38;;;;;;;;;;;5.50;99.90;;;;;;4960855;28;19922;-75
2022/01/30 06:13:05;;;;;;;;;;;5.40;99.90;;;;;;4955077;28;20585;-76
2022/01/30 06:15:32;;;;;;;;;;;5.40;99.90;;;;;;4966239;28;19948;-75
2022/01/30 06:17:58;;;;;;;;;;;5.40;99.90;;;;;;4961692;28;19930;-75
2022/01/30 06:20:25;;;;;;;;;;;5.40;99.90;;;;;;4954058;28;19929;-76
2022/01/30 06:22:52;;;;;;;;;;;5.40;99.90;;;;;;4960290;28;19964;-75
2022/01/30 06:25:18;;;;;;;;;;;5.50;99.90;;;;;;4962605;28;19930;-76
2022/01/30 06:27:46;;;;;;;;;;;5.50;99.90;;;;;;4962895;28;20280;-75
2022/01/30 06:30:12;;;;;;;;;;;5.50;99.90;;;;;;4973049;28;19922;-76
2022/01/30 06:32:39;;;;;;;;;;;5.40;99.90;;;;;;4952095;28;19930;-75
2022/01/30 06:35:06;;;;;;;;;;;5.40;99.90;;;;;;4970164;28;19922;-76
2022/01/30 06:37:33;;;;;;;;;;;5.40;99.90;;;;;;4973544;28;19926;-76
2022/01/30 06:40:02;;;;;;;;;;;5.40;99.90;;;;;;4954826;28;19999;-76
2022/01/30 06:42:36;;;;;;;;;;;5.30;99.90;;;;;;4951738;28;19949;-76
2022/01/30 06:45:03;;;;;;;;;;;5.30;99.90;;;;;;4956533;28;19922;-75
2022/01/30 06:47:30;;;;;;;;;;;5.30;99.90;;;;;;4948242;28;19922;-76
2022/01/30 06:49:57;;;;;;;;;;;5.20;99.90;;;;;;4964371;28;19928;-76
2022/01/30 06:52:23;;;;;;;;;;;5.20;99.90;;;;;;4970276;28;19922;-75
2022/01/30 06:54:50;;;;;;;;;;;5.10;99.90;;;;;;4964024;28;20539;-76
2022/01/30 06:57:19;;;;;;;;;;;5.10;99.90;;;;;;4961909;28;20048;-75
2022/01/30 06:59:46;;;;;;;;;;;5.10;99.90;;;;;;4947219;28;20502;-76
2022/01/30 07:02:12;;;;;;;;;;;5.10;99.90;;;;;;4948703;28;20385;-76
2022/01/30 07:04:39;;;;;;;;;;;5.10;99.90;;;;;;4968529;28;20554;-76
2022/01/30 07:07:06;;;;;;;;;;;5.10;99.90;;;;;;4976708;28;19929;-76
2022/01/30 07:09:32;;;;;;;;;;;5.10;99.90;;;;;;5017339;28;19926;-76
2022/01/30 07:11:59;;;;;;;;;;;5.10;99.90;;;;;;4974896;28;19929;-75
2022/01/30 07:14:26;;;;;;;;;;;5.10;99.90;;;;;;4950750;28;20396;-76
2022/01/30 07:16:53;;;;;;;;;;;5.20;99.90;;;;;;4954561;28;20411;-76
2022/01/30 07:19:19;;;;;;;;;;;5.20;99.90;;;;;;4967494;28;19932;-76
2022/01/30 07:21:46;;;;;;;;;;;5.30;99.90;;;;;;4954717;28;19945;-76
2022/01/30 07:24:13;;;;;;;;;;;5.30;99.90;;;;;;4958522;28;20269;-76
2022/01/30 07:26:40;;;;;;;;;;;5.30;99.90;;;;;;4965943;28;19973;-76
2022/01/30 07:29:06;;;;;;;;;;;5.40;99.90;;;;;;4958577;28;20055;-75
2022/01/30 07:31:33;;;;;;;;;;;5.40;99.90;;;;;;4970948;28;20379;-76
2022/01/30 07:34:00;;;;;;;;;;;5.40;99.90;;;;;;4963490;28;19978;-76
2022/01/30 07:36:27;;;;;;;;;;;5.40;99.90;;;;;;4956315;28;19926;-75
2022/01/30 07:38:56;;;;;;;;;;;5.40;99.90;;;;;;4945438;28;20028;-75
2022/01/30 07:41:23;;;;;;;;;;;5.50;99.90;;;;;;4963924;28;20385;-75
2022/01/30 07:43:50;;;;;;;;;;;5.50;99.90;;;;;;4961891;28;20565;-76
2022/01/30 07:46:16;;;;;;;;;;;5.60;99.90;;;;;;4951156;28;19929;-76
2022/01/30 07:48:43;;;;;;;;;;;5.60;99.90;;;;;;4960577;28;20003;-75
2022/01/30 07:51:10;;;;;;;;;;;5.60;99.90;;;;;;4955094;28;20013;-75
2022/01/30 07:53:37;;;;;;;;;;;5.50;99.90;;;;;;4963845;28;20186;-76
2022/01/30 07:56:03;;;;;;;;;;;5.60;99.90;;;;;;4964404;28;19922;-76
2022/01/30 07:58:30;;;;;;;;;;;5.60;99.90;;;;;;4963760;28;19926;-76
2022/01/30 08:00:56;;;;;;;;;;;5.60;99.90;;;;;;4968178;28;20376;-76
2022/01/30 08:03:23;;;;;;;;;;;5.60;99.90;;;;;;4959879;28;19922;-76
2022/01/30 08:05:50;;;;;;;;;;;5.60;99.90;;;;;;4953786;28;19932;-76
2022/01/30 08:08:17;;;;;;;;;;;5.70;99.90;;;;;;4952534;28;19930;-76
2022/01/30 08:10:44;;;;;;;;;;;5.70;99.90;;;;;;4957459;28;19922;-76
2022/01/30 08:13:10;;;;;;;;;;;5.80;99.90;;;;;;4962628;28;19922;-76
2022/01/30 08:15:37;;;;;;;;;;;5.80;99.90;;;;;;4961625;28;19925;-76
2022/01/30 08:18:04;;;;;;;;;;;5.80;99.90;;;;;;4957974;28;19921;-76
2022/01/30 08:20:30;;;;;;;;;;;5.90;99.90;;;;;;4969350;28;19922;-76
2022/01/30 08:22:57;;;;;;;;;;;5.90;99.90;;;;;;4957415;28;20422;-76
2022/01/30 08:25:24;;;;;;;;;;;5.90;99.90;;;;;;4968364;28;19928;-76
2022/01/30 08:27:52;;;;;;;;;;;5.90;99.90;;;;;;4957792;28;19976;-76
2022/01/30 08:30:18;;;;;;;;;;;6.00;99.90;;;;;;4958782;28;19922;-76
2022/01/30 08:32:46;;;;;;;;;;;6.10;99.90;;;;;;4950438;28;19922;-76
2022/01/30 08:35:13;;;;;;;;;;;6.20;99.90;;;;;;4955386;28;20394;-76
2022/01/30 08:37:43;;;;;;;;;;;6.30;99.90;;;;;;4965223;28;19922;-76
2022/01/30 08:40:11;;;;;;;;;;;6.50;99.90;;;;;;4960374;28;19958;-76
2022/01/30 08:42:37;;;;;;;;;;;6.50;99.90;;;;;;4964750;28;19926;-76
2022/01/30 08:45:05;;;;;;;;;;;6.60;99.90;;;;;;4964994;28;19937;-75
2022/01/30 08:47:37;;;;;;;;;;;6.70;99.90;;;;;;4963962;28;19926;-76
2022/01/30 08:50:04;;;;;;;;;;;6.60;99.90;;;;;;4960748;28;19923;-76
2022/01/30 08:52:32;;;;;;;;;;;6.60;99.90;;;;;;4958418;28;20351;-75
2022/01/30 08:55:00;;;;;;;;;;;6.70;99.90;;;;;;4958438;28;19922;-75
2022/01/30 08:57:26;;;;;;;;;;;6.70;99.90;;;;;;4955133;28;19929;-75
2022/01/30 08:59:54;;;;;;;;;;;6.90;99.90;;;;;;4956944;28;19928;-75
2022/01/30 09:02:22;;;;;;;;;;;7.00;99.90;;;;;;4960836;28;19957;-76
2022/01/30 09:04:49;;;;;;;;;;;7.20;99.90;;;;;;4960449;28;19926;-75
2022/01/30 09:07:16;;;;;;;;;;;7.50;99.90;;;;;;4961556;28;19929;-75
2022/01/30 09:09:43;;;;;;;;;;;7.50;99.90;;;;;;4959410;28;19946;-75
2022/01/30 09:12:10;;;;;;;;;;;7.30;99.90;;;;;;4960592;28;20274;-75
2022/01/30 09:14:42;;;;;;;;;;;7.20;99.90;;;;;;4960873;28;19922;-75
2022/01/30 09:17:13;;;;;;;;;;;7.10;99.90;;;;;;4968052;28;20016;-75
2022/01/30 09:19:46;;;;;;;;;;;7.00;99.90;;;;;;4952832;28;19926;-75
2022/01/30 09:22:16;;;;;;;;;;;7.30;99.90;;;;;;4952572;28;19950;-75
2022/01/30 09:24:43;;;;;;;;;;;7.70;99.90;;;;;;4961857;28;19932;-75
2022/01/30 09:27:10;;;;;;;;;;;8.20;99.90;;;;;;4963193;28;20393;-76
2022/01/30 09:29:37;;;;;;;;;;;8.60;99.90;;;;;;4962388;28;19922;-75
2022/01/30 09:32:04;;;;;;;;;;;8.80;99.90;;;;;;4962221;28;19933;-75
2022/01/30 09:34:31;;;;;;;;;;;8.40;99.90;;;;;;4959937;28;19975;-75
2022/01/30 09:36:58;;;;;;;;;;;8.50;99.90;;;;;;4954151;28;19930;-75
2022/01/30 09:39:28;;;;;;;;;;;8.20;99.90;;;;;;4953146;28;20134;-75
2022/01/30 09:41:55;;;;;;;;;;;7.80;99.90;;;;;;4961100;28;19922;-75
2022/01/30 09:44:24;;;;;;;;;;;7.70;99.90;;;;;;4954847;28;19922;-75
2022/01/30 09:46:51;;;;;;;;;;;7.80;99.90;;;;;;4952611;28;20412;-75
2022/01/30 09:49:21;;;;;;;;;;;7.60;99.90;;;;;;4956561;28;19980;-76
2022/01/30 09:51:48;;;;;;;;;;;7.50;99.90;;;;;;4956393;28;19930;-75
2022/01/30 09:54:14;;;;;;;;;;;7.40;99.90;;;;;;4967892;28;19923;-76
2022/01/30 09:56:41;;;;;;;;;;;7.50;99.90;;;;;;4954988;28;19926;-75
2022/01/30 09:59:07;;;;;;;;;;;8.00;99.90;;;;;;4960466;28;19944;-76
2022/01/30 10:01:37;;;;;;;;;;;8.10;99.90;;;;;;4955182;28;19934;-76
2022/01/30 10:04:05;;;;;;;;;;;7.70;99.90;;;;;;4972884;28;20383;-76
2022/01/30 10:06:50;;;;;;;;;;;7.50;99.90;;;;;;4964438;28;19928;-76
2022/01/30 10:09:25;;;;;;;;;;;7.30;99.90;;;;;;4963665;28;20435;-75
2022/01/30 10:12:08;;;;;;;;;;;7.20;99.90;;;;;;4959159;28;19922;-77
2022/01/30 10:14:47;;;;;;;;;;;7.30;99.90;;;;;;4965173;28;19926;-76
2022/01/30 10:17:28;;;;;;;;;;;7.10;99.90;;;;;;4967732;28;19991;-75
2022/01/30 10:20:14;;;;;;;;;;;7.10;99.90;;;;;;4964620;28;19928;-76
2022/01/30 10:22:50;;;;;;;;;;;7.50;99.90;;;;;;4979467;28;19923;-76
2022/01/30 10:25:18;;;;;;;;;;;7.80;99.90;;;;;;4961615;28;19922;-76
2022/01/30 10:27:45;;;;;;;;;;;8.00;99.90;;;;;;4954730;28;19929;-76
2022/01/30 10:30:12;;;;;;;;;;;7.90;99.90;;;;;;4960955;28;19936;-76
2022/01/30 10:32:39;;;;;;;;;;;7.50;99.90;;;;;;4963113;28;19925;-75
2022/01/30 10:35:07;;;;;;;;;;;7.20;99.90;;;;;;4968966;28;19984;-76
2022/01/30 10:37:36;;;;;;;;;;;7.10;99.90;;;;;;4951890;28;20361;-75
2022/01/30 10:40:17;;;;;;;;;;;7.20;99.90;;;;;;4950474;28;19926;-76
2022/01/30 10:42:47;;;;;;;;;;;7.20;99.90;;;;;;4963768;28;19922;-76
2022/01/30 10:45:23;;;;;;;;;;;7.50;99.90;;;;;;4956466;28;19923;-76
2022/01/30 10:48:11;;;;;;;;;;;7.50;99.90;;;;;;4954464;28;20377;-76
2022/01/30 10:50:45;;;;;;;;;;;7.60;99.90;;;;;;4961845;28;19941;-75
2022/01/30 10:53:20;;;;;;;;;;;7.40;99.90;;;;;;4970726;28;19922;-76
2022/01/30 10:55:47;;;;;;;;;;;7.30;99.90;;;;;;4957781;28;20458;-75
2022/01/30 10:58:15;;;;;;;;;;;7.10;99.90;;;;;;4965744;28;19922;-76
2022/01/30 11:00:50;;;;;;;;;;;7.10;99.90;;;;;;4972108;28;19926;-76
2022/01/30 11:03:50;;;;;;;;;;;7.10;99.90;;;;;;4954402;28;19970;-76
2022/01/30 11:06:17;;;;;;;;;;;6.90;99.90;;;;;;5019089;28;19928;-77
2022/01/30 11:08:47;;;;;;;;;;;6.90;99.90;;;;;;5008884;28;19921;-76
2022/01/30 11:11:30;;;;;;;;;;;7.50;99.90;;;;;;5020673;28;20379;-77
2022/01/30 11:19:17;;;;;;;;;;;7.80;99.90;;;;;;5026662;28;20379;-76
2022/01/30 11:21:47;;;;;;;;;;;7.50;99.90;;;;;;5020970;28;19921;-76
2022/01/30 11:24:15;;;;;;;;;;;7.40;99.90;;;;;;5021728;28;21695;-76
2022/01/30 11:26:44;;;;;;;;;;;7.30;99.90;;;;;;5014892;28;20153;-76
2022/01/30 11:29:11;;;;;;;;;;;7.40;99.90;;;;;;5027315;28;19925;-76
2022/01/30 11:31:38;;;;;;;;;;;7.30;99.90;;;;;;5001697;28;19921;-76
2022/01/30 11:34:04;;;;;;;;;;;7.20;99.90;;;;;;5021265;28;19924;-76
2022/01/30 11:36:32;;;;;;;;;;;7.30;99.90;;;;;;5025213;28;19921;-76
2022/01/30 11:38:59;;;;;;;;;;;7.20;99.90;;;;;;5003194;28;19930;-75
2022/01/30 11:41:26;;;;;;;;;;;7.30;99.90;;;;;;5011715;28;19925;-76
2022/01/30 11:44:15;;;;;;;;;;;7.60;99.90;;;;;;4959370;28;20311;-75
2022/01/30 11:46:41;;;;;;;;;;;7.90;99.90;;;;;;4978603;28;19925;-76
2022/01/30 11:49:12;;;;;;;;;;;8.10;99.90;;;;;;4968479;28;20053;-76
2022/01/30 11:51:49;;;;;;;;;;;8.00;99.90;;;;;;4957085;28;20856;-76
2022/01/30 11:54:34;;;;;;;;;;;8.40;99.90;;;;;;4955548;28;20389;-76
2022/01/30 11:57:02;;;;;;;;;;;9.20;99.90;;;;;;4954844;28;19929;-74
2022/01/30 11:59:36;;;;;;;;;;;10.00;99.90;;;;;;4956564;28;19952;-74
2022/01/30 12:02:22;;;;;;;;;;;10.50;99.90;;;;;;4964057;28;19930;-74
2022/01/30 12:04:56;;;;;;;;;;;10.80;99.90;;;;;;4958176;28;19961;-73
2022/01/30 12:07:38;;;;;;;;;;;10.90;99.90;;;;;;4963908;28;20308;-74
2022/01/30 12:10:20;;;;;;;;;;;10.70;99.90;;;;;;4966619;28;19949;-74
2022/01/30 12:12:51;;;;;;;;;;;10.60;99.90;;;;;;4958842;28;19988;-73
2022/01/30 12:15:36;;;;;;;;;;;11.00;99.90;;;;;;4966115;28;19922;-73
2022/01/30 12:18:26;;;;;;;;;;;11.20;99.90;;;;;;4960399;28;19930;-74
2022/01/30 12:20:56;;;;;;;;;;;11.60;99.90;;;;;;4961810;28;20392;-74
2022/01/30 12:23:32;;;;;;;;;;;11.50;99.90;;;;;;4954124;28;20308;-75
2022/01/30 12:26:04;;;;;;;;;;;11.50;99.90;;;;;;4963457;28;19937;-75
2022/01/30 12:28:39;;;;;;;;;;;11.10;99.90;;;;;;4949383;28;20013;-75
2022/01/30 12:31:25;;;;;;;;;;;10.60;99.90;;;;;;4948041;28;19929;-75
2022/01/30 12:33:59;;;;;;;;;;;10.40;99.90;;;;;;4959250;28;19928;-75
2022/01/30 12:36:26;;;;;;;;;;;10.30;99.90;;;;;;4968576;28;19926;-75
2022/01/30 12:38:57;;;;;;;;;;;9.90;99.90;;;;;;4959057;28;19930;-75
2022/01/30 12:41:24;;;;;;;;;;;9.40;99.90;;;;;;4959577;28;20778;-75
2022/01/30 12:43:58;;;;;;;;;;;9.00;99.90;;;;;;4957074;28;20384;-75
2022/01/30 12:46:27;;;;;;;;;;;8.90;99.90;;;;;;4961466;28;19922;-75
2022/01/30 12:49:02;;;;;;;;;;;9.00;99.90;;;;;;4958421;28;20021;-75
2022/01/30 12:51:28;;;;;;;;;;;8.80;99.90;;;;;;4956802;28;19936;-75
2022/01/30 12:53:58;;;;;;;;;;;8.40;99.90;;;;;;4957248;28;19922;-75
2022/01/30 12:56:25;;;;;;;;;;;8.50;99.90;;;;;;4963195;28;19930;-75
2022/01/30 12:58:54;;;;;;;;;;;9.40;99.90;;;;;;4956863;28;19926;-75
2022/01/30 13:01:24;;;;;;;;;;;10.20;99.90;;;;;;4959047;28;19930;-76
2022/01/30 13:04:05;;;;;;;;;;;10.40;99.90;;;;;;4961875;28;19926;-75
2022/01/30 13:06:32;;;;;;;;;;;10.10;99.90;;;;;;4976678;28;19923;-75
2022/01/30 13:08:59;;;;;;;;;;;9.90;99.90;;;;;;4979462;28;19922;-76
2022/01/30 13:11:27;;;;;;;;;;;9.90;99.90;;;;;;4975988;28;19922;-76
2022/01/30 13:14:07;;;;;;;;;;;10.10;99.90;;;;;;4976355;28;19993;-74
2022/01/30 13:16:38;;;;;;;;;;;10.50;99.90;;;;;;4986426;28;19926;-75
2022/01/30 13:19:07;;;;;;;;;;;10.10;99.90;;;;;;4986758;28;19910;-75
2022/01/30 13:21:35;;;;;;;;;;;9.90;99.90;;;;;;4986865;28;19952;-75
2022/01/30 13:24:02;;;;;;;;;;;10.10;99.90;;;;;;4978124;28;19998;-75
2022/01/30 13:26:30;;;;;;;;;;;10.50;99.90;;;;;;4976330;28;19941;-76
2022/01/30 13:28:57;;;;;;;;;;;10.70;99.90;;;;;;4969640;28;19922;-75
2022/01/30 13:31:24;;;;;;;;;;;10.60;99.90;;;;;;4987728;28;19957;-74
2022/01/30 13:34:07;;;;;;;;;;;10.80;99.90;;;;;;4980283;28;19909;-75
2022/01/30 13:36:34;;;;;;;;;;;10.70;99.90;;;;;;4973662;28;19922;-75
2022/01/30 13:39:06;;;;;;;;;;;10.90;99.90;;;;;;4971528;28;19914;-75
2022/01/30 13:41:43;;;;;;;;;;;11.10;99.90;;;;;;4973577;28;20387;-75
2022/01/30 13:44:22;;;;;;;;;;;10.80;99.90;;;;;;4967617;28;19922;-76
2022/01/30 13:46:57;;;;;;;;;;;10.30;99.90;;;;;;4968566;28;20005;-75
2022/01/30 13:49:27;;;;;;;;;;;9.70;99.90;;;;;;4968349;28;20273;-77
2022/01/30 13:52:04;;;;;;;;;;;9.10;99.90;;;;;;4954648;28;19929;-78
2022/01/30 13:54:30;;;;;;;;;;;9.00;99.90;;;;;;4975271;28;19922;-75
2022/01/30 13:57:00;;;;;;;;;;;9.20;99.90;;;;;;4971630;28;19975;-75
2022/01/30 13:59:30;;;;;;;;;;;9.60;99.90;;;;;;4965993;28;19928;-75
2022/01/30 14:01:58;;;;;;;;;;;9.80;99.90;;;;;;4952636;28;19941;-75
2022/01/30 14:04:25;;;;;;;;;;;9.80;99.90;;;;;;4966544;28;20228;-75
2022/01/30 14:06:54;;;;;;;;;;;9.80;99.90;;;;;;4964834;28;19945;-75
2022/01/30 14:09:25;;;;;;;;;;;9.70;99.90;;;;;;4949255;28;19922;-74
2022/01/30 14:12:03;;;;;;;;;;;9.50;99.90;;;;;;4963958;28;19928;-75
2022/01/30 14:14:39;;;;;;;;;;;9.30;99.90;;;;;;4983219;28;20300;-75
2022/01/30 14:17:09;;;;;;;;;;;9.30;99.90;;;;;;4966426;28;19929;-76
2022/01/30 14:19:50;;;;;;;;;;;9.00;99.90;;;;;;4976896;28;25060;-75
2022/01/30 14:22:20;;;;;;;;;;;8.70;99.90;;;;;;4963795;28;20392;-75
2022/01/30 14:24:51;;;;;;;;;;;8.70;99.90;;;;;;4957337;28;19922;-76
2022/01/30 14:27:18;;;;;;;;;;;8.70;99.90;;;;;;4955874;28;20366;-76
2022/01/30 14:29:45;;;;;;;;;;;8.70;99.90;;;;;;4967094;28;19932;-76
2022/01/30 14:32:21;;;;;;;;;;;8.80;99.90;;;;;;4966459;28;19939;-74
2022/01/30 14:34:51;;;;;;;;;;;8.90;99.90;;;;;;4948816;28;19934;-74
2022/01/30 14:37:19;;;;;;;;;;;8.90;99.90;;;;;;4954360;28;19934;-77
2022/01/30 14:39:53;;;;;;;;;;;8.90;99.90;;;;;;4950731;28;19933;-77
2022/01/30 14:42:19;;;;;;;;;;;8.70;99.90;;;;;;4950165;28;19926;-76
2022/01/30 14:44:48;;;;;;;;;;;8.70;99.90;;;;;;4958838;28;19975;-77
2022/01/30 14:47:15;;;;;;;;;;;8.50;99.90;;;;;;4964380;28;19922;-77
2022/01/30 14:49:43;;;;;;;;;;;8.40;99.90;;;;;;4954816;28;19922;-77
2022/01/30 14:52:09;;;;;;;;;;;8.40;99.90;;;;;;4981002;28;19926;-76
2022/01/30 14:54:36;;;;;;;;;;;8.40;99.90;;;;;;4948194;28;19923;-77
2022/01/30 14:57:04;;;;;;;;;;;8.20;99.90;;;;;;4960186;28;19972;-77
2022/01/30 14:59:30;;;;;;;;;;;8.10;99.90;;;;;;4952733;28;19959;-77
2022/01/30 15:01:57;;;;;;;;;;;8.00;99.90;;;;;;4960884;28;19929;-76
2022/01/30 15:04:24;;;;;;;;;;;7.90;99.90;;;;;;4965083;28;20184;-76
2022/01/30 15:06:52;;;;;;;;;;;7.80;99.90;;;;;;4955168;28;20220;-76
2022/01/30 15:09:18;;;;;;;;;;;7.70;99.90;;;;;;4959260;28;19926;-76
2022/01/30 15:11:49;;;;;;;;;;;7.50;99.90;;;;;;4962186;28;19957;-76
2022/01/30 15:14:22;;;;;;;;;;;7.40;99.90;;;;;;4966879;28;19922;-77
2022/01/30 15:16:51;;;;;;;;;;;7.20;99.90;;;;;;4965153;28;20225;-76
2022/01/30 15:19:18;;;;;;;;;;;7.10;99.90;;;;;;4962871;28;19923;-76
2022/01/30 15:21:45;;;;;;;;;;;7.10;99.90;;;;;;4957337;28;19933;-77
2022/01/30 15:24:12;;;;;;;;;;;7.10;99.90;;;;;;4963448;28;20420;-75
2022/01/30 15:26:39;;;;;;;;;;;6.90;99.90;;;;;;4960761;28;19926;-76
2022/01/30 15:29:07;;;;;;;;;;;6.80;99.90;;;;;;4968534;28;19930;-76